Time;durP1;ratioP1;P1;durP2;ratioP2;P2;SDS_P1;SDS_P2;PMS_P1;PMS_P2;Temp;Humidity;BMP_temperature;BMP_pressure;BME280_temperature;BME280_humidity;BME280_pressure;Samples;Min_cycle;Max_cycle;Signal;HPM_P1;HPM_P2
2022/09/14 00:02:13;;;;;;;;;;;12.00;99.90;;;;;;5096009;28;20413;-74
2022/09/14 00:04:40;;;;;;;;;;;12.00;99.90;;;;;;5094983;28;20383;-74
2022/09/14 00:07:06;;;;;;;;;;;12.10;99.90;;;;;;5095748;28;19990;-74
2022/09/14 00:09:32;;;;;;;;;;;12.10;99.90;;;;;;5095200;28;19954;-74
2022/09/14 00:11:57;;;;;;;;;;;12.10;99.90;;;;;;5094284;28;20387;-74
2022/09/14 00:14:23;;;;;;;;;;;12.10;99.90;;;;;;5095483;28;19908;-75
2022/09/14 00:16:49;;;;;;;;;;;12.20;99.90;;;;;;5093694;28;19912;-74
2022/09/14 00:19:15;;;;;;;;;;;12.10;99.90;;;;;;5095559;28;19909;-75
2022/09/14 00:21:41;;;;;;;;;;;12.20;99.90;;;;;;5094904;28;20002;-76
2022/09/14 00:24:08;;;;;;;;;;;12.20;99.90;;;;;;5093936;28;20376;-75
2022/09/14 00:26:34;;;;;;;;;;;12.20;99.90;;;;;;5094664;28;19908;-75
2022/09/14 00:29:03;;;;;;;;;;;12.20;99.90;;;;;;5095299;28;20281;-76
2022/09/14 00:31:29;;;;;;;;;;;12.20;99.90;;;;;;5094760;28;20005;-74
2022/09/14 00:33:55;;;;;;;;;;;12.30;99.90;;;;;;5094027;28;20002;-75
2022/09/14 00:36:25;;;;;;;;;;;12.30;99.90;;;;;;5095220;28;20380;-75
2022/09/14 00:38:51;;;;;;;;;;;12.40;99.90;;;;;;5094276;28;19915;-75
2022/09/14 00:41:18;;;;;;;;;;;12.40;99.90;;;;;;5095029;28;19912;-75
2022/09/14 00:43:58;;;;;;;;;;;12.50;99.90;;;;;;5093904;28;19924;-76
2022/09/14 00:46:28;;;;;;;;;;;12.50;99.90;;;;;;5094940;28;19961;-75
2022/09/14 00:48:55;;;;;;;;;;;12.50;99.90;;;;;;5094156;28;20364;-75
2022/09/14 00:51:21;;;;;;;;;;;12.60;99.90;;;;;;5093429;28;19962;-74
2022/09/14 00:53:47;;;;;;;;;;;12.60;99.90;;;;;;5094192;28;20326;-74
2022/09/14 00:56:13;;;;;;;;;;;12.70;99.90;;;;;;5094710;28;19912;-74
2022/09/14 00:58:39;;;;;;;;;;;12.70;99.90;;;;;;5094012;28;19954;-74
2022/09/14 01:01:04;;;;;;;;;;;12.70;99.90;;;;;;5094931;28;19908;-74
2022/09/14 01:03:30;;;;;;;;;;;12.70;99.90;;;;;;5094317;28;19915;-74
2022/09/14 01:06:08;;;;;;;;;;;12.70;99.90;;;;;;5092847;28;20298;-74
2022/09/14 01:08:42;;;;;;;;;;;12.70;99.90;;;;;;5093841;28;19915;-74
2022/09/14 01:11:12;;;;;;;;;;;12.80;99.90;;;;;;5094244;28;19965;-74
2022/09/14 01:13:47;;;;;;;;;;;12.70;99.90;;;;;;5093401;28;19965;-74
2022/09/14 01:16:26;;;;;;;;;;;12.80;99.90;;;;;;5094522;28;20003;-74
2022/09/14 01:18:56;;;;;;;;;;;12.80;99.90;;;;;;5093359;28;19994;-73
2022/09/14 01:21:31;;;;;;;;;;;12.70;99.90;;;;;;5093831;28;19912;-73
2022/09/14 01:24:18;;;;;;;;;;;12.70;99.90;;;;;;5094185;28;20356;-73
2022/09/14 01:27:02;;;;;;;;;;;12.70;99.90;;;;;;5093505;28;19908;-74
2022/09/14 01:29:40;;;;;;;;;;;12.60;99.90;;;;;;5093986;28;19908;-74
2022/09/14 01:32:26;;;;;;;;;;;12.60;99.90;;;;;;5092873;28;20003;-74
2022/09/14 01:35:02;;;;;;;;;;;12.60;99.90;;;;;;5093440;28;20194;-74
2022/09/14 01:37:28;;;;;;;;;;;12.60;99.90;;;;;;5092414;28;19908;-74
2022/09/14 01:39:57;;;;;;;;;;;12.60;99.90;;;;;;5091577;28;19973;-74
2022/09/14 01:42:25;;;;;;;;;;;12.60;99.90;;;;;;5093499;28;19908;-74
2022/09/14 01:44:53;;;;;;;;;;;12.50;99.90;;;;;;5091624;28;20266;-74
2022/09/14 01:47:40;;;;;;;;;;;12.40;99.90;;;;;;5093742;28;19978;-74
2022/09/14 01:50:08;;;;;;;;;;;12.40;99.90;;;;;;5093074;28;19919;-74
2022/09/14 01:52:39;;;;;;;;;;;12.40;99.90;;;;;;5093095;28;19912;-75
2022/09/14 01:55:23;;;;;;;;;;;12.30;99.90;;;;;;5093791;28;20280;-75
2022/09/14 01:57:58;;;;;;;;;;;12.30;99.90;;;;;;5093045;28;19998;-75
2022/09/14 02:00:24;;;;;;;;;;;12.20;99.90;;;;;;5092255;28;19908;-74
2022/09/14 02:02:57;;;;;;;;;;;12.20;99.90;;;;;;5092666;28;20056;-75
2022/09/14 02:05:39;;;;;;;;;;;12.10;99.90;;;;;;5092212;28;19908;-73
2022/09/14 02:08:05;;;;;;;;;;;12.10;99.90;;;;;;5093394;28;19908;-74
2022/09/14 02:10:31;;;;;;;;;;;12.00;99.90;;;;;;5093052;28;20013;-74
2022/09/14 02:12:57;;;;;;;;;;;11.90;99.90;;;;;;5092745;28;19916;-74
2022/09/14 02:15:25;;;;;;;;;;;11.90;99.90;;;;;;5092888;28;19914;-74
2022/09/14 02:17:52;;;;;;;;;;;11.90;99.90;;;;;;5092749;28;19930;-74
2022/09/14 02:20:20;;;;;;;;;;;11.90;99.90;;;;;;5093239;28;19914;-74
2022/09/14 02:22:46;;;;;;;;;;;11.80;99.90;;;;;;5093015;28;19994;-74
2022/09/14 02:25:11;;;;;;;;;;;11.80;99.90;;;;;;5092784;28;19934;-74
2022/09/14 02:27:37;;;;;;;;;;;11.70;99.90;;;;;;5091434;28;19930;-74
2022/09/14 02:30:03;;;;;;;;;;;11.70;99.90;;;;;;5093375;28;19912;-74
2022/09/14 02:32:28;;;;;;;;;;;11.70;99.90;;;;;;5092861;28;19965;-74
2022/09/14 02:35:00;;;;;;;;;;;11.60;99.90;;;;;;5092382;28;19908;-74
2022/09/14 02:37:31;;;;;;;;;;;11.60;99.90;;;;;;5092760;28;19908;-75
2022/09/14 02:40:15;;;;;;;;;;;11.60;99.90;;;;;;5091354;28;20081;-75
2022/09/14 02:42:52;;;;;;;;;;;11.50;99.90;;;;;;5092403;28;19912;-74
2022/09/14 02:45:21;;;;;;;;;;;11.50;99.90;;;;;;5093010;28;20276;-74
2022/09/14 02:48:09;;;;;;;;;;;11.50;99.90;;;;;;5093662;28;20244;-74
2022/09/14 02:50:38;;;;;;;;;;;11.40;99.90;;;;;;5089955;28;20384;-75
2022/09/14 02:53:07;;;;;;;;;;;11.40;99.90;;;;;;5096804;28;19912;-74
2022/09/14 02:55:36;;;;;;;;;;;11.40;99.90;;;;;;5130057;27;19915;-74
2022/09/14 02:58:04;;;;;;;;;;;11.30;99.90;;;;;;5096076;28;19908;-74
2022/09/14 03:00:31;;;;;;;;;;;11.20;99.90;;;;;;5097243;28;19943;-74
2022/09/14 03:02:57;;;;;;;;;;;11.20;99.90;;;;;;5096075;28;19912;-75
2022/09/14 03:05:23;;;;;;;;;;;11.10;99.90;;;;;;5096868;28;19908;-74
2022/09/14 03:07:48;;;;;;;;;;;11.10;99.90;;;;;;5096262;28;19955;-74
2022/09/14 03:10:14;;;;;;;;;;;11.00;99.90;;;;;;5096448;28;20052;-74
2022/09/14 03:12:40;;;;;;;;;;;11.00;99.90;;;;;;5095946;28;19919;-74
2022/09/14 03:15:05;;;;;;;;;;;11.00;99.90;;;;;;5096417;28;19908;-74
2022/09/14 03:17:31;;;;;;;;;;;11.00;99.90;;;;;;5096653;28;19908;-74
2022/09/14 03:19:56;;;;;;;;;;;11.00;99.90;;;;;;5094977;28;19908;-75
2022/09/14 03:22:22;;;;;;;;;;;10.90;99.90;;;;;;5095272;28;19908;-75
2022/09/14 03:24:48;;;;;;;;;;;10.90;99.90;;;;;;5095862;28;20369;-74
2022/09/14 03:27:13;;;;;;;;;;;10.90;99.90;;;;;;5096294;28;20375;-74
2022/09/14 03:29:39;;;;;;;;;;;10.90;99.90;;;;;;5095865;28;19981;-74
2022/09/14 03:32:04;;;;;;;;;;;10.90;99.90;;;;;;5095718;28;20368;-73
2022/09/14 03:34:30;;;;;;;;;;;10.90;99.90;;;;;;5096169;28;19915;-73
2022/09/14 03:36:56;;;;;;;;;;;10.90;99.90;;;;;;5095504;28;19908;-74
2022/09/14 03:39:21;;;;;;;;;;;10.90;99.90;;;;;;5096279;28;20444;-74
2022/09/14 03:41:47;;;;;;;;;;;11.00;99.90;;;;;;5095437;28;20277;-74
2022/09/14 03:44:12;;;;;;;;;;;11.00;99.90;;;;;;5095448;28;19920;-74
2022/09/14 03:46:38;;;;;;;;;;;11.10;99.90;;;;;;5094821;28;19950;-74
2022/09/14 03:49:04;;;;;;;;;;;11.10;99.90;;;;;;5094220;28;19909;-74
2022/09/14 03:51:30;;;;;;;;;;;11.20;99.90;;;;;;5094726;28;19919;-74
2022/09/14 03:53:56;;;;;;;;;;;11.20;99.90;;;;;;5093936;28;19912;-74
2022/09/14 03:56:22;;;;;;;;;;;11.20;99.90;;;;;;5094642;28;19912;-74
2022/09/14 03:58:47;;;;;;;;;;;11.30;99.90;;;;;;5093770;28;19962;-73
2022/09/14 04:01:14;;;;;;;;;;;11.30;99.90;;;;;;5127540;28;20420;-73
2022/09/14 04:03:40;;;;;;;;;;;11.30;99.90;;;;;;5094435;28;19987;-73
2022/09/14 04:06:06;;;;;;;;;;;11.30;99.90;;;;;;5093984;28;19908;-73
2022/09/14 04:08:33;;;;;;;;;;;11.40;99.90;;;;;;5094409;28;19925;-74
2022/09/14 04:10:59;;;;;;;;;;;11.40;99.90;;;;;;5092447;28;20361;-74
2022/09/14 04:13:24;;;;;;;;;;;11.40;99.90;;;;;;5094455;28;19958;-74
2022/09/14 04:15:59;;;;;;;;;;;11.40;99.90;;;;;;5093848;28;20340;-73
2022/09/14 04:18:26;;;;;;;;;;;11.40;99.90;;;;;;5093989;28;19908;-74
2022/09/14 04:20:55;;;;;;;;;;;11.40;99.90;;;;;;5093398;28;19915;-73
2022/09/14 04:23:21;;;;;;;;;;;11.50;99.90;;;;;;5094206;28;19916;-74
2022/09/14 04:25:47;;;;;;;;;;;11.50;99.90;;;;;;5093678;28;19915;-74
2022/09/14 04:28:12;;;;;;;;;;;11.50;99.90;;;;;;5094184;28;20276;-73
2022/09/14 04:30:38;;;;;;;;;;;11.60;99.90;;;;;;5092966;28;19956;-74
2022/09/14 04:33:04;;;;;;;;;;;11.60;99.90;;;;;;5092301;28;20537;-74
2022/09/14 04:35:29;;;;;;;;;;;11.70;99.90;;;;;;5094421;28;19914;-74
2022/09/14 04:37:55;;;;;;;;;;;11.60;99.90;;;;;;5093438;28;19908;-74
2022/09/14 04:40:20;;;;;;;;;;;11.70;99.90;;;;;;5093994;28;20369;-74
2022/09/14 04:42:46;;;;;;;;;;;11.70;99.90;;;;;;5092152;28;19915;-74
2022/09/14 04:45:12;;;;;;;;;;;11.80;99.90;;;;;;5020200;28;2091753;-74
2022/09/14 04:47:37;;;;;;;;;;;11.80;99.90;;;;;;5094485;28;19912;-73
2022/09/14 04:50:04;;;;;;;;;;;11.80;99.90;;;;;;5094172;28;19919;-74
2022/09/14 04:52:29;;;;;;;;;;;11.80;99.90;;;;;;5094370;28;20011;-74
2022/09/14 04:54:55;;;;;;;;;;;11.70;99.90;;;;;;5092828;28;19955;-74
2022/09/14 04:57:21;;;;;;;;;;;11.80;99.90;;;;;;5127293;27;20414;-74
2022/09/14 04:59:46;;;;;;;;;;;11.80;99.90;;;;;;5094076;28;19915;-74
2022/09/14 05:02:12;;;;;;;;;;;11.80;99.90;;;;;;5094388;28;20257;-74
2022/09/14 05:04:37;;;;;;;;;;;11.80;99.90;;;;;;5094157;28;19908;-75
2022/09/14 05:07:03;;;;;;;;;;;11.80;99.90;;;;;;5093976;28;20010;-74
2022/09/14 05:09:28;;;;;;;;;;;11.90;99.90;;;;;;5094366;28;19916;-74
2022/09/14 05:11:54;;;;;;;;;;;11.90;99.90;;;;;;5092994;28;19922;-73
2022/09/14 05:14:20;;;;;;;;;;;11.90;99.90;;;;;;5094189;28;20430;-74
2022/09/14 05:16:46;;;;;;;;;;;11.90;99.90;;;;;;5127058;27;20003;-74
2022/09/14 05:19:16;;;;;;;;;;;11.90;99.90;;;;;;5092610;28;19951;-74
2022/09/14 05:21:42;;;;;;;;;;;11.90;99.90;;;;;;5093092;28;20439;-74
2022/09/14 05:24:13;;;;;;;;;;;11.90;99.90;;;;;;5093634;28;19983;-74
2022/09/14 05:26:39;;;;;;;;;;;11.90;99.90;;;;;;5092787;28;19955;-74
2022/09/14 05:29:05;;;;;;;;;;;11.90;99.90;;;;;;5093833;28;19912;-74
2022/09/14 05:31:31;;;;;;;;;;;11.90;99.90;;;;;;5093923;28;20356;-74
2022/09/14 05:33:57;;;;;;;;;;;12.00;99.90;;;;;;5093039;28;19916;-73
2022/09/14 05:36:22;;;;;;;;;;;12.00;99.90;;;;;;5093624;28;19930;-73
2022/09/14 05:38:48;;;;;;;;;;;12.00;99.90;;;;;;5093472;28;19912;-74
2022/09/14 05:41:14;;;;;;;;;;;12.10;99.90;;;;;;5093545;28;19909;-74
2022/09/14 05:43:40;;;;;;;;;;;12.10;99.90;;;;;;5093433;28;19915;-74
2022/09/14 05:46:07;;;;;;;;;;;12.10;99.90;;;;;;5093196;28;19912;-74
2022/09/14 05:48:33;;;;;;;;;;;12.10;99.90;;;;;;5093625;28;20380;-74
2022/09/14 05:50:59;;;;;;;;;;;12.10;99.90;;;;;;5092683;28;20358;-74
2022/09/14 05:53:26;;;;;;;;;;;12.10;99.90;;;;;;5093874;28;19912;-75
2022/09/14 05:55:58;;;;;;;;;;;12.20;99.90;;;;;;5093081;28;19915;-75
2022/09/14 05:58:25;;;;;;;;;;;12.20;99.90;;;;;;5093740;28;19908;-75
2022/09/14 06:00:50;;;;;;;;;;;12.30;99.90;;;;;;5093228;28;19915;-75
2022/09/14 06:03:16;;;;;;;;;;;12.30;99.90;;;;;;5093066;28;19994;-75
2022/09/14 06:05:41;;;;;;;;;;;12.30;99.90;;;;;;5094081;28;19916;-75
2022/09/14 06:08:07;;;;;;;;;;;12.20;99.90;;;;;;5091606;28;19908;-75
2022/09/14 06:10:32;;;;;;;;;;;12.20;99.90;;;;;;5093308;28;20310;-75
2022/09/14 06:12:58;;;;;;;;;;;12.20;99.90;;;;;;5091540;28;19918;-74
2022/09/14 06:15:24;;;;;;;;;;;12.20;99.90;;;;;;5093098;28;20007;-75
2022/09/14 06:17:50;;;;;;;;;;;12.20;99.90;;;;;;5092044;28;20014;-75
2022/09/14 06:20:17;;;;;;;;;;;12.20;99.90;;;;;;5092438;28;19908;-75
2022/09/14 06:22:43;;;;;;;;;;;12.20;99.90;;;;;;5125886;27;19908;-75
2022/09/14 06:25:10;;;;;;;;;;;12.20;99.90;;;;;;5092679;28;19998;-76
2022/09/14 06:27:36;;;;;;;;;;;12.20;99.90;;;;;;5093081;28;19915;-75
2022/09/14 06:30:02;;;;;;;;;;;12.30;99.90;;;;;;5090912;28;20048;-75
2022/09/14 06:32:29;;;;;;;;;;;12.30;99.90;;;;;;5093021;28;19912;-75
2022/09/14 06:34:54;;;;;;;;;;;12.30;99.90;;;;;;5092295;28;19908;-74
2022/09/14 06:37:20;;;;;;;;;;;12.40;99.90;;;;;;5091634;28;20372;-75
2022/09/14 06:39:45;;;;;;;;;;;12.40;99.90;;;;;;5092777;28;20008;-75
2022/09/14 06:42:11;;;;;;;;;;;12.40;99.90;;;;;;5092213;28;19915;-76
2022/09/14 06:44:36;;;;;;;;;;;12.40;99.90;;;;;;5092407;28;19924;-75
2022/09/14 06:47:02;;;;;;;;;;;12.40;99.90;;;;;;5092180;28;19908;-74
2022/09/14 06:49:28;;;;;;;;;;;12.40;99.90;;;;;;5125398;28;19963;-75
2022/09/14 06:51:55;;;;;;;;;;;12.40;99.90;;;;;;5092935;28;19958;-75
2022/09/14 06:54:21;;;;;;;;;;;12.40;99.90;;;;;;5092548;28;19915;-75
2022/09/14 06:56:46;;;;;;;;;;;12.40;99.90;;;;;;5091721;28;19908;-75
2022/09/14 06:59:13;;;;;;;;;;;12.40;99.90;;;;;;5079113;28;20268;-75
2022/09/14 07:01:39;;;;;;;;;;;12.40;99.90;;;;;;5082919;28;19932;-75
2022/09/14 07:04:05;;;;;;;;;;;12.50;99.90;;;;;;5071749;28;19951;-76
2022/09/14 07:06:32;;;;;;;;;;;12.50;99.90;;;;;;5072426;28;19952;-75
2022/09/14 07:08:57;;;;;;;;;;;12.50;99.90;;;;;;5071421;28;19913;-75
2022/09/14 07:11:24;;;;;;;;;;;12.50;99.90;;;;;;5072186;28;19973;-75
2022/09/14 07:13:51;;;;;;;;;;;12.50;99.90;;;;;;5072149;28;20274;-75
2022/09/14 07:16:17;;;;;;;;;;;12.50;99.90;;;;;;5071874;28;19909;-75
2022/09/14 07:18:43;;;;;;;;;;;12.50;99.90;;;;;;5072298;28;20304;-74
2022/09/14 07:21:13;;;;;;;;;;;12.60;99.90;;;;;;5071212;28;19977;-74
2022/09/14 07:23:39;;;;;;;;;;;12.60;99.90;;;;;;5072602;28;19924;-74
2022/09/14 07:26:15;;;;;;;;;;;12.60;99.90;;;;;;5071569;28;19915;-75
2022/09/14 07:28:42;;;;;;;;;;;12.70;99.90;;;;;;5072307;28;20380;-74
2022/09/14 07:31:18;;;;;;;;;;;12.70;99.90;;;;;;5071616;28;19916;-75
2022/09/14 07:33:44;;;;;;;;;;;12.80;99.90;;;;;;5072782;28;19912;-75
2022/09/14 07:36:11;;;;;;;;;;;12.80;99.90;;;;;;5075263;28;19908;-74
2022/09/14 07:38:37;;;;;;;;;;;12.90;99.90;;;;;;5075688;28;19999;-74
2022/09/14 07:41:03;;;;;;;;;;;12.90;99.90;;;;;;5074793;28;20334;-74
2022/09/14 07:43:29;;;;;;;;;;;12.90;99.90;;;;;;5075376;28;19924;-72
2022/09/14 07:45:54;;;;;;;;;;;12.90;99.90;;;;;;5074406;28;19962;-71
2022/09/14 07:48:20;;;;;;;;;;;13.00;99.90;;;;;;5075311;28;19915;-74
2022/09/14 07:50:46;;;;;;;;;;;12.90;99.90;;;;;;5075350;28;19916;-72
2022/09/14 07:53:12;;;;;;;;;;;12.90;99.90;;;;;;5074893;28;19916;-72
2022/09/14 07:55:38;;;;;;;;;;;12.90;99.90;;;;;;5075191;28;19934;-73
2022/09/14 07:58:03;;;;;;;;;;;12.90;99.90;;;;;;5075262;28;20407;-73
2022/09/14 08:00:29;;;;;;;;;;;12.90;99.90;;;;;;5075133;28;19952;-74
2022/09/14 08:02:56;;;;;;;;;;;13.00;99.90;;;;;;5075141;28;19931;-73
2022/09/14 08:05:22;;;;;;;;;;;13.00;99.90;;;;;;5074948;28;20010;-73
2022/09/14 08:07:52;;;;;;;;;;;13.00;99.90;;;;;;5073945;28;19909;-73
2022/09/14 08:10:18;;;;;;;;;;;13.10;99.90;;;;;;5074206;28;19912;-73
2022/09/14 08:12:43;;;;;;;;;;;13.10;99.90;;;;;;5083476;28;19913;-73
2022/09/14 08:15:09;;;;;;;;;;;13.20;99.90;;;;;;5082891;28;19909;-73
2022/09/14 08:17:35;;;;;;;;;;;13.30;99.90;;;;;;5075213;28;19959;-73
2022/09/14 08:20:00;;;;;;;;;;;13.40;99.90;;;;;;5072594;28;19920;-73
2022/09/14 08:22:26;;;;;;;;;;;13.40;99.90;;;;;;5075084;28;19916;-72
2022/09/14 08:24:52;;;;;;;;;;;13.40;99.90;;;;;;5074871;28;19959;-73
2022/09/14 08:27:17;;;;;;;;;;;13.40;99.90;;;;;;5074421;28;20759;-73
2022/09/14 08:29:43;;;;;;;;;;;13.50;99.90;;;;;;5074739;28;19915;-73
2022/09/14 08:32:10;;;;;;;;;;;13.60;99.90;;;;;;5074413;28;19912;-73
2022/09/14 08:34:35;;;;;;;;;;;13.60;99.90;;;;;;5073252;28;19909;-73
2022/09/14 08:37:01;;;;;;;;;;;13.60;99.90;;;;;;5073981;28;20003;-73
2022/09/14 08:39:26;;;;;;;;;;;13.60;99.90;;;;;;5075034;28;19916;-74
2022/09/14 08:41:53;;;;;;;;;;;13.70;99.90;;;;;;5074708;28;19948;-74
2022/09/14 08:44:31;;;;;;;;;;;13.80;99.90;;;;;;5073988;28;20677;-73
2022/09/14 08:47:01;;;;;;;;;;;13.80;99.90;;;;;;5072838;28;19962;-73
2022/09/14 08:49:41;;;;;;;;;;;13.80;99.90;;;;;;5074045;28;20003;-73
2022/09/14 08:52:20;;;;;;;;;;;13.80;99.90;;;;;;5073792;28;19923;-73
2022/09/14 08:54:47;;;;;;;;;;;13.70;99.90;;;;;;5074575;28;20425;-73
2022/09/14 08:57:17;;;;;;;;;;;13.70;99.90;;;;;;5074219;28;19908;-72
2022/09/14 08:59:49;;;;;;;;;;;13.70;99.90;;;;;;5074346;28;19908;-73
2022/09/14 09:02:32;;;;;;;;;;;13.70;99.90;;;;;;5082104;28;20410;-73
2022/09/14 09:05:04;;;;;;;;;;;13.70;99.90;;;;;;5084033;28;20353;-73
2022/09/14 09:07:32;;;;;;;;;;;13.70;99.90;;;;;;5089093;28;19908;-74
2022/09/14 09:09:58;;;;;;;;;;;13.70;99.90;;;;;;5085599;28;20372;-74
2022/09/14 09:12:34;;;;;;;;;;;13.80;99.90;;;;;;5083716;28;20038;-73
2022/09/14 09:15:01;;;;;;;;;;;13.80;99.90;;;;;;5077906;28;19915;-73
2022/09/14 09:17:33;;;;;;;;;;;13.80;99.90;;;;;;5084097;28;19908;-73
2022/09/14 09:19:59;;;;;;;;;;;13.90;99.90;;;;;;5083747;28;20325;-73
2022/09/14 09:22:26;;;;;;;;;;;14.00;99.90;;;;;;5082383;28;19955;-74
2022/09/14 09:24:53;;;;;;;;;;;14.00;99.90;;;;;;5077011;28;19991;-73
2022/09/14 09:27:19;;;;;;;;;;;14.00;99.90;;;;;;5073229;28;20286;-73
2022/09/14 09:29:44;;;;;;;;;;;14.10;99.90;;;;;;5073747;28;19909;-73
2022/09/14 09:32:13;;;;;;;;;;;14.10;99.90;;;;;;5073186;28;20315;-73
2022/09/14 09:34:38;;;;;;;;;;;14.10;99.90;;;;;;5073751;28;19959;-73
2022/09/14 09:37:04;;;;;;;;;;;14.10;99.90;;;;;;5073453;28;20001;-73
2022/09/14 09:39:30;;;;;;;;;;;14.10;99.90;;;;;;5073523;28;20230;-73
2022/09/14 09:41:59;;;;;;;;;;;14.20;99.90;;;;;;5073592;28;19908;-73
2022/09/14 09:44:25;;;;;;;;;;;14.20;99.90;;;;;;5071319;28;20023;-74
2022/09/14 09:46:53;;;;;;;;;;;14.30;99.90;;;;;;5073351;28;19997;-73
2022/09/14 09:49:20;;;;;;;;;;;14.40;99.90;;;;;;5072726;28;19909;-73
2022/09/14 09:51:46;;;;;;;;;;;14.40;99.90;;;;;;5073236;28;19938;-73
2022/09/14 09:54:12;;;;;;;;;;;14.50;99.90;;;;;;5072490;28;19916;-74
2022/09/14 09:56:50;;;;;;;;;;;14.50;99.90;;;;;;5072733;28;20427;-73
2022/09/14 09:59:22;;;;;;;;;;;14.60;99.90;;;;;;5072450;28;20324;-74
2022/09/14 10:01:47;;;;;;;;;;;14.60;99.90;;;;;;5072986;28;19909;-74
2022/09/14 10:04:17;;;;;;;;;;;14.70;99.90;;;;;;5072728;28;19916;-74
2022/09/14 10:06:48;;;;;;;;;;;14.90;99.90;;;;;;5073134;28;19915;-74
2022/09/14 10:09:18;;;;;;;;;;;15.00;99.90;;;;;;5072679;28;19999;-74
2022/09/14 10:11:44;;;;;;;;;;;15.10;99.90;;;;;;5072692;28;19913;-74
2022/09/14 10:14:25;;;;;;;;;;;15.20;99.90;;;;;;5072388;28;19919;-74
2022/09/14 10:16:50;;;;;;;;;;;15.10;99.90;;;;;;5072606;28;19909;-73
2022/09/14 10:19:24;;;;;;;;;;;15.10;99.90;;;;;;5072340;28;20326;-74
2022/09/14 10:22:04;;;;;;;;;;;15.10;99.90;;;;;;5073073;28;19913;-74
2022/09/14 10:24:31;;;;;;;;;;;15.10;99.90;;;;;;5072219;28;19915;-75
2022/09/14 10:26:57;;;;;;;;;;;15.00;99.90;;;;;;5072883;28;19955;-74
2022/09/14 10:29:26;;;;;;;;;;;15.00;99.90;;;;;;5072388;28;19908;-73
2022/09/14 10:31:54;;;;;;;;;;;14.90;99.90;;;;;;5071563;28;19916;-74
2022/09/14 10:34:20;;;;;;;;;;;14.90;99.90;;;;;;5072071;28;19979;-74
2022/09/14 10:36:52;;;;;;;;;;;15.00;99.90;;;;;;5072949;28;20337;-74
2022/09/14 10:39:27;;;;;;;;;;;15.00;99.90;;;;;;5072020;28;20007;-73
2022/09/14 10:41:53;;;;;;;;;;;15.10;99.90;;;;;;5073034;28;19958;-73
2022/09/14 10:44:24;;;;;;;;;;;15.10;99.90;;;;;;5071894;28;19964;-74
2022/09/14 10:47:08;;;;;;;;;;;15.20;99.90;;;;;;5072317;28;19948;-74
2022/09/14 10:49:52;;;;;;;;;;;15.30;99.90;;;;;;5072381;28;19936;-74
2022/09/14 10:52:24;;;;;;;;;;;15.30;99.90;;;;;;5071819;28;19968;-74
2022/09/14 10:55:02;;;;;;;;;;;15.30;99.90;;;;;;5072652;28;19962;-74
2022/09/14 10:57:27;;;;;;;;;;;15.30;99.90;;;;;;5072094;28;19908;-74
2022/09/14 10:59:55;;;;;;;;;;;15.30;99.90;;;;;;5072377;28;19916;-74
2022/09/14 11:02:29;;;;;;;;;;;15.30;99.90;;;;;;5070785;28;20357;-74
2022/09/14 11:05:14;;;;;;;;;;;15.30;99.90;;;;;;5073904;28;19912;-74
2022/09/14 11:07:42;;;;;;;;;;;15.30;99.90;;;;;;5081191;28;19908;-74
2022/09/14 11:10:22;;;;;;;;;;;15.30;99.90;;;;;;5084200;28;19912;-74
2022/09/14 11:12:54;;;;;;;;;;;15.30;99.90;;;;;;5083666;28;19947;-73
2022/09/14 11:15:26;;;;;;;;;;;15.40;99.90;;;;;;5085049;28;20414;-74
2022/09/14 11:17:54;;;;;;;;;;;15.40;99.90;;;;;;5078678;28;19963;-74
2022/09/14 11:20:38;;;;;;;;;;;15.40;99.90;;;;;;5075217;28;19909;-75
2022/09/14 11:23:10;;;;;;;;;;;15.40;99.90;;;;;;5076205;28;19908;-73
2022/09/14 11:25:38;;;;;;;;;;;15.50;99.90;;;;;;5075690;28;19931;-74
2022/09/14 11:28:33;;;;;;;;;;;15.40;99.90;;;;;;5076449;28;19908;-74
2022/09/14 11:31:34;;;;;;;;;;;15.30;99.90;;;;;;5074863;28;20111;-74
2022/09/14 11:34:06;;;;;;;;;;;15.30;99.90;;;;;;5073643;28;19912;-75
2022/09/14 11:36:34;;;;;;;;;;;15.40;99.90;;;;;;5074963;28;19992;-74
2022/09/14 11:39:21;;;;;;;;;;;15.40;99.90;;;;;;5074669;28;19913;-74
2022/09/14 11:41:48;;;;;;;;;;;15.50;99.90;;;;;;5076082;28;19937;-74
2022/09/14 11:44:27;;;;;;;;;;;15.60;99.90;;;;;;5073916;28;19927;-74
2022/09/14 11:47:07;;;;;;;;;;;15.70;99.90;;;;;;5074496;28;19912;-74
2022/09/14 11:49:38;;;;;;;;;;;15.80;99.90;;;;;;5083107;28;20464;-74
2022/09/14 11:52:12;;;;;;;;;;;15.90;99.90;;;;;;5086367;28;19916;-74
2022/09/14 11:54:39;;;;;;;;;;;15.90;99.90;;;;;;5075702;28;19958;-74
2022/09/14 11:57:04;;;;;;;;;;;15.80;99.90;;;;;;5084817;28;19909;-74
2022/09/14 11:59:33;;;;;;;;;;;15.90;99.90;;;;;;5087415;28;20372;-73
2022/09/14 12:02:17;;;;;;;;;;;16.00;99.90;;;;;;5091147;28;20406;-74
2022/09/14 12:05:01;;;;;;;;;;;16.00;99.90;;;;;;5095903;28;20018;-75
2022/09/14 12:07:41;;;;;;;;;;;16.20;99.90;;;;;;5086329;28;19912;-74
2022/09/14 12:10:12;;;;;;;;;;;16.20;99.90;;;;;;5081230;28;19919;-74
2022/09/14 12:12:41;;;;;;;;;;;16.20;99.90;;;;;;5077400;28;19912;-74
2022/09/14 12:15:13;;;;;;;;;;;16.20;99.90;;;;;;5075625;28;19915;-74
2022/09/14 12:17:40;;;;;;;;;;;16.20;99.90;;;;;;5074796;28;19950;-73
2022/09/14 12:20:24;;;;;;;;;;;16.10;99.90;;;;;;5075308;28;19909;-74
2022/09/14 12:22:49;;;;;;;;;;;16.10;99.90;;;;;;5075139;28;19912;-74
2022/09/14 12:25:17;;;;;;;;;;;16.00;99.90;;;;;;5075227;28;19915;-73
2022/09/14 12:27:43;;;;;;;;;;;16.00;99.90;;;;;;5075340;28;19912;-75
2022/09/14 12:30:27;;;;;;;;;;;16.00;99.90;;;;;;5075474;28;19912;-73
2022/09/14 12:32:53;;;;;;;;;;;16.00;99.90;;;;;;5075189;28;19912;-75
2022/09/14 12:35:42;;;;;;;;;;;16.00;99.90;;;;;;5074119;28;19915;-74
2022/09/14 12:38:26;;;;;;;;;;;16.00;99.90;;;;;;5073497;28;20266;-75
2022/09/14 12:40:52;;;;;;;;;;;16.00;99.90;;;;;;5074458;28;19951;-74
2022/09/14 12:43:27;;;;;;;;;;;16.10;99.90;;;;;;5074311;28;19959;-74
2022/09/14 12:45:59;;;;;;;;;;;16.10;99.90;;;;;;5074541;28;19946;-75
2022/09/14 12:48:43;;;;;;;;;;;16.10;99.90;;;;;;5073932;28;19908;-74
2022/09/14 12:51:12;;;;;;;;;;;16.20;99.90;;;;;;5074365;28;20353;-74
2022/09/14 12:53:38;;;;;;;;;;;16.20;99.90;;;;;;5073612;28;20041;-74
2022/09/14 12:56:05;;;;;;;;;;;16.30;99.90;;;;;;5074324;28;19958;-74
2022/09/14 12:58:42;;;;;;;;;;;16.30;99.90;;;;;;5073752;28;19909;-74
2022/09/14 13:01:24;;;;;;;;;;;16.40;99.90;;;;;;5074197;28;19916;-74
2022/09/14 13:03:54;;;;;;;;;;;16.40;99.90;;;;;;5073790;28;19934;-75
2022/09/14 13:06:20;;;;;;;;;;;16.40;99.90;;;;;;5074125;28;19916;-75
2022/09/14 13:08:47;;;;;;;;;;;16.40;99.90;;;;;;5073776;28;19909;-74
2022/09/14 13:11:32;;;;;;;;;;;16.40;99.90;;;;;;5073463;28;20408;-75
2022/09/14 13:13:58;;;;;;;;;;;16.50;99.90;;;;;;5073770;28;20373;-75
2022/09/14 13:16:43;;;;;;;;;;;16.50;99.90;;;;;;5073320;28;19909;-75
2022/09/14 13:19:19;;;;;;;;;;;16.50;99.90;;;;;;5074057;28;20005;-75
2022/09/14 13:21:46;;;;;;;;;;;16.50;99.90;;;;;;5073235;28;19998;-75
2022/09/14 13:24:23;;;;;;;;;;;16.50;99.90;;;;;;5073707;28;19919;-75
2022/09/14 13:26:48;;;;;;;;;;;16.60;99.90;;;;;;5073988;28;19908;-74
2022/09/14 13:29:14;;;;;;;;;;;16.60;99.90;;;;;;5073882;28;19912;-75
2022/09/14 13:31:43;;;;;;;;;;;16.50;99.90;;;;;;5071352;28;19966;-74
2022/09/14 13:34:17;;;;;;;;;;;16.50;99.90;;;;;;5073429;28;19916;-74
2022/09/14 13:36:42;;;;;;;;;;;16.50;99.90;;;;;;5073047;28;19916;-74
2022/09/14 13:39:21;;;;;;;;;;;16.50;99.90;;;;;;5073702;28;19954;-74
2022/09/14 13:41:47;;;;;;;;;;;16.50;99.90;;;;;;5073329;28;19908;-74
2022/09/14 13:44:13;;;;;;;;;;;16.50;99.90;;;;;;5073126;28;20441;-74
2022/09/14 13:46:38;;;;;;;;;;;16.50;99.90;;;;;;5071508;28;20268;-74
2022/09/14 13:49:05;;;;;;;;;;;16.40;99.90;;;;;;5073506;28;19909;-74
2022/09/14 13:51:31;;;;;;;;;;;16.50;99.90;;;;;;5071412;28;19920;-74
2022/09/14 13:53:57;;;;;;;;;;;16.60;99.90;;;;;;5073211;28;19913;-74
2022/09/14 13:56:30;;;;;;;;;;;16.70;99.90;;;;;;5072843;28;19970;-74
2022/09/14 13:59:11;;;;;;;;;;;16.70;99.90;;;;;;5073226;28;19998;-74
2022/09/14 14:01:36;;;;;;;;;;;16.80;99.90;;;;;;5072745;28;19954;-74
2022/09/14 14:04:02;;;;;;;;;;;16.80;99.90;;;;;;5073243;28;19952;-74
2022/09/14 14:06:29;;;;;;;;;;;16.90;99.90;;;;;;5071359;28;19915;-74
2022/09/14 14:09:02;;;;;;;;;;;16.90;99.90;;;;;;5071815;28;19947;-74
2022/09/14 14:11:41;;;;;;;;;;;17.00;99.90;;;;;;5072197;28;20024;-74
2022/09/14 14:14:16;;;;;;;;;;;16.90;99.90;;;;;;5072936;28;19914;-74
2022/09/14 14:17:01;;;;;;;;;;;16.90;99.90;;;;;;5072331;28;19913;-74
2022/09/14 14:19:28;;;;;;;;;;;17.00;99.90;;;;;;5072099;28;20002;-75
2022/09/14 14:22:12;;;;;;;;;;;17.00;99.90;;;;;;5072686;28;20297;-75
2022/09/14 14:24:38;;;;;;;;;;;17.00;99.90;;;;;;5072565;28;19915;-76
2022/09/14 14:27:04;;;;;;;;;;;17.00;99.90;;;;;;5072846;28;20003;-75
2022/09/14 14:29:29;;;;;;;;;;;17.00;99.90;;;;;;5072349;28;19959;-75